sensor_id;sensor_type;location;lat;lon;timestamp;pressure;altitude;pressure_sealevel;temperature;humidity
12475;BME280;6302;42.624;23.334;2023-02-02T00:00:53;93315.78;;;4.45;71.67
12475;BME280;6302;42.624;23.334;2023-02-02T00:03:20;93315.38;;;4.43;71.89
12475;BME280;6302;42.624;23.334;2023-02-02T00:05:48;93312.44;;;4.48;72.42
12475;BME280;6302;42.624;23.334;2023-02-02T00:08:16;93313.16;;;4.45;73.08
12475;BME280;6302;42.624;23.334;2023-02-02T00:10:44;93309.72;;;4.41;71.86
12475;BME280;6302;42.624;23.334;2023-02-02T00:13:11;93310.91;;;4.47;72.10
12475;BME280;6302;42.624;23.334;2023-02-02T00:15:39;93308.59;;;4.42;73.18
12475;BME280;6302;42.624;23.334;2023-02-02T00:18:06;93301.13;;;4.44;73.44
12475;BME280;6302;42.624;23.334;2023-02-02T00:20:33;93303.13;;;4.28;74.67
12475;BME280;6302;42.624;23.334;2023-02-02T00:23:00;93313.22;;;4.26;75.33
12475;BME280;6302;42.624;23.334;2023-02-02T00:25:27;93305.28;;;4.23;76.19
12475;BME280;6302;42.624;23.334;2023-02-02T00:27:55;93291.84;;;4.24;75.91
12475;BME280;6302;42.624;23.334;2023-02-02T00:30:22;93299.25;;;4.19;77.16
12475;BME280;6302;42.624;23.334;2023-02-02T00:32:49;93299.94;;;4.16;77.65
12475;BME280;6302;42.624;23.334;2023-02-02T00:35:17;93302.94;;;4.14;78.32
12475;BME280;6302;42.624;23.334;2023-02-02T00:37:44;93302.09;;;4.10;80.04
12475;BME280;6302;42.624;23.334;2023-02-02T00:40:11;93304.03;;;4.13;82.52
12475;BME280;6302;42.624;23.334;2023-02-02T00:42:38;93310.69;;;4.07;84.41
12475;BME280;6302;42.624;23.334;2023-02-02T00:45:08;93316.25;;;4.06;85.27
12475;BME280;6302;42.624;23.334;2023-02-02T00:47:44;93313.75;;;4.13;85.71
12475;BME280;6302;42.624;23.334;2023-02-02T00:50:13;93314.47;;;4.10;85.96
12475;BME280;6302;42.624;23.334;2023-02-02T00:52:40;93303.41;;;3.97;86.66
12475;BME280;6302;42.624;23.334;2023-02-02T00:55:08;93309.03;;;3.99;88.03
12475;BME280;6302;42.624;23.334;2023-02-02T00:57:35;93305.13;;;3.89;90.13
12475;BME280;6302;42.624;23.334;2023-02-02T01:00:03;93303.31;;;3.93;90.97
12475;BME280;6302;42.624;23.334;2023-02-02T01:02:32;93304.50;;;3.96;89.70
12475;BME280;6302;42.624;23.334;2023-02-02T01:04:59;93301.88;;;3.96;88.87
12475;BME280;6302;42.624;23.334;2023-02-02T01:07:26;93295.09;;;3.95;88.13
12475;BME280;6302;42.624;23.334;2023-02-02T01:09:53;93291.84;;;4.02;87.54
12475;BME280;6302;42.624;23.334;2023-02-02T01:12:20;93300.47;;;4.02;87.36
12475;BME280;6302;42.624;23.334;2023-02-02T01:14:47;93293.31;;;3.99;88.23
12475;BME280;6302;42.624;23.334;2023-02-02T01:17:14;93294.81;;;4.00;87.96
12475;BME280;6302;42.624;23.334;2023-02-02T01:19:43;93286.09;;;3.92;87.72
12475;BME280;6302;42.624;23.334;2023-02-02T01:22:10;93284.78;;;3.83;88.60
12475;BME280;6302;42.624;23.334;2023-02-02T01:24:37;93280.09;;;3.92;85.68
12475;BME280;6302;42.624;23.334;2023-02-02T01:27:03;93272.03;;;3.81;86.19
12475;BME280;6302;42.624;23.334;2023-02-02T01:29:31;93276.91;;;3.83;86.43
12475;BME280;6302;42.624;23.334;2023-02-02T01:31:57;93280.25;;;3.80;87.39
12475;BME280;6302;42.624;23.334;2023-02-02T01:34:24;93280.94;;;3.77;87.62
12475;BME280;6302;42.624;23.334;2023-02-02T01:36:52;93277.75;;;3.87;86.41
12475;BME280;6302;42.624;23.334;2023-02-02T01:39:19;93272.03;;;3.81;85.77
12475;BME280;6302;42.624;23.334;2023-02-02T01:41:46;93273.13;;;3.80;87.02
12475;BME280;6302;42.624;23.334;2023-02-02T01:47:17;93270.34;;;3.70;87.15
12475;BME280;6302;42.624;23.334;2023-02-02T01:49:45;93262.53;;;3.73;87.42
12475;BME280;6302;42.624;23.334;2023-02-02T01:52:14;93255.22;;;3.60;87.22
12475;BME280;6302;42.624;23.334;2023-02-02T01:54:45;93255.72;;;3.69;86.84
12475;BME280;6302;42.624;23.334;2023-02-02T01:57:15;93239.13;;;3.61;87.79
12475;BME280;6302;42.624;23.334;2023-02-02T01:59:45;93245.50;;;3.60;88.04
12475;BME280;6302;42.624;23.334;2023-02-02T02:02:13;93241.63;;;3.54;87.93
12475;BME280;6302;42.624;23.334;2023-02-02T02:04:40;93229.97;;;3.52;86.30
12475;BME280;6302;42.624;23.334;2023-02-02T02:07:08;93236.47;;;3.58;85.66
12475;BME280;6302;42.624;23.334;2023-02-02T02:09:36;93236.88;;;3.60;85.28
12475;BME280;6302;42.624;23.334;2023-02-02T02:12:09;93234.56;;;3.58;84.41
12475;BME280;6302;42.624;23.334;2023-02-02T02:14:38;93237.16;;;3.55;81.40
12475;BME280;6302;42.624;23.334;2023-02-02T02:17:42;93239.78;;;3.55;82.02
12475;BME280;6302;42.624;23.334;2023-02-02T02:20:42;93244.59;;;3.53;82.47
12475;BME280;6302;42.624;23.334;2023-02-02T02:24:06;93239.38;;;3.53;84.06
12475;BME280;6302;42.624;23.334;2023-02-02T02:27:10;93242.19;;;3.44;84.38
12475;BME280;6302;42.624;23.334;2023-02-02T02:30:01;93256.88;;;3.49;83.80
12475;BME280;6302;42.624;23.334;2023-02-02T02:32:39;93249.69;;;3.46;82.71
12475;BME280;6302;42.624;23.334;2023-02-02T02:35:12;93251.50;;;3.42;81.91
12475;BME280;6302;42.624;23.334;2023-02-02T02:37:47;93228.91;;;3.34;80.76
12475;BME280;6302;42.624;23.334;2023-02-02T02:40:21;93249.28;;;3.44;80.11
12475;BME280;6302;42.624;23.334;2023-02-02T02:42:53;93235.78;;;3.42;78.17
12475;BME280;6302;42.624;23.334;2023-02-02T02:45:21;93239.94;;;3.43;76.67
12475;BME280;6302;42.624;23.334;2023-02-02T02:47:51;93243.59;;;3.38;76.05
12475;BME280;6302;42.624;23.334;2023-02-02T02:50:19;93248.47;;;3.40;74.28
12475;BME280;6302;42.624;23.334;2023-02-02T02:52:46;93249.28;;;3.44;72.90
12475;BME280;6302;42.624;23.334;2023-02-02T02:55:14;93246.00;;;3.47;70.09
12475;BME280;6302;42.624;23.334;2023-02-02T02:58:02;93247.97;;;3.53;67.51
12475;BME280;6302;42.624;23.334;2023-02-02T03:00:42;93255.91;;;3.57;67.98
12475;BME280;6302;42.624;23.334;2023-02-02T03:03:19;93255.91;;;3.57;67.56
12475;BME280;6302;42.624;23.334;2023-02-02T03:05:53;93236.88;;;3.60;67.19
12475;BME280;6302;42.624;23.334;2023-02-02T03:08:30;93238.38;;;3.61;66.51
12475;BME280;6302;42.624;23.334;2023-02-02T03:10:59;93222.53;;;3.54;67.15
12475;BME280;6302;42.624;23.334;2023-02-02T03:13:27;93238.38;;;3.61;67.46
12475;BME280;6302;42.624;23.334;2023-02-02T03:15:55;93225.25;;;3.61;67.06
12475;BME280;6302;42.624;23.334;2023-02-02T03:18:26;93240.38;;;3.67;68.69
12475;BME280;6302;42.624;23.334;2023-02-02T03:20:53;93240.56;;;3.59;71.24
12475;BME280;6302;42.624;23.334;2023-02-02T03:23:20;93236.88;;;3.60;72.42
12475;BME280;6302;42.624;23.334;2023-02-02T03:25:47;93231.22;;;3.58;74.03
12475;BME280;6302;42.624;23.334;2023-02-02T03:28:15;93221.72;;;3.50;75.32
12475;BME280;6302;42.624;23.334;2023-02-02T03:30:43;93226.97;;;3.50;75.52
12475;BME280;6302;42.624;23.334;2023-02-02T03:33:12;93223.50;;;3.46;76.97
12475;BME280;6302;42.624;23.334;2023-02-02T03:35:41;93234.53;;;3.55;75.24
12475;BME280;6302;42.624;23.334;2023-02-02T03:38:07;93224.75;;;3.52;76.84
12475;BME280;6302;42.624;23.334;2023-02-02T03:40:34;93231.50;;;3.53;77.28
12475;BME280;6302;42.624;23.334;2023-02-02T03:43:01;93237.84;;;3.52;78.16
12475;BME280;6302;42.624;23.334;2023-02-02T03:45:28;93228.41;;;3.47;78.89
12475;BME280;6302;42.624;23.334;2023-02-02T03:47:56;93239.53;;;3.41;76.34
12475;BME280;6302;42.624;23.334;2023-02-02T03:50:23;93232.47;;;3.45;75.79
12475;BME280;6302;42.624;23.334;2023-02-02T03:52:52;93235.09;;;3.45;75.36
12475;BME280;6302;42.624;23.334;2023-02-02T03:55:19;93242.56;;;3.43;75.78
12475;BME280;6302;42.624;23.334;2023-02-02T03:57:46;93245.19;;;3.43;76.74
12475;BME280;6302;42.624;23.334;2023-02-02T04:00:13;93257.78;;;3.37;75.64
12475;BME280;6302;42.624;23.334;2023-02-02T04:02:40;93249.16;;;3.37;75.62
12475;BME280;6302;42.624;23.334;2023-02-02T04:05:07;93250.63;;;3.34;76.88
12475;BME280;6302;42.624;23.334;2023-02-02T04:07:34;93253.72;;;3.40;75.84
12475;BME280;6302;42.624;23.334;2023-02-02T04:10:03;93249.56;;;3.39;76.85
12475;BME280;6302;42.624;23.334;2023-02-02T04:12:29;93255.81;;;3.31;74.75
12475;BME280;6302;42.624;23.334;2023-02-02T04:14:56;93262.56;;;3.32;74.49
12475;BME280;6302;42.624;23.334;2023-02-02T04:17:23;93256.63;;;3.35;74.52
12475;BME280;6302;42.624;23.334;2023-02-02T04:19:50;93261.84;;;3.35;73.00
12475;BME280;6302;42.624;23.334;2023-02-02T04:22:22;93258.00;;;3.28;71.64
12475;BME280;6302;42.624;23.334;2023-02-02T04:24:49;93260.41;;;3.37;71.94
12475;BME280;6302;42.624;23.334;2023-02-02T04:27:17;93255.53;;;3.36;72.01
12475;BME280;6302;42.624;23.334;2023-02-02T04:29:44;93264.19;;;3.40;72.82
12475;BME280;6302;42.624;23.334;2023-02-02T04:32:12;93253.88;;;3.27;73.10
12475;BME280;6302;42.624;23.334;2023-02-02T04:34:39;93263.22;;;3.28;72.50
12475;BME280;6302;42.624;23.334;2023-02-02T04:37:06;93264.97;;;3.40;70.58
12475;BME280;6302;42.624;23.334;2023-02-02T04:39:33;93261.09;;;3.34;72.25
12475;BME280;6302;42.624;23.334;2023-02-02T04:42:00;93253.59;;;3.33;71.73
12475;BME280;6302;42.624;23.334;2023-02-02T04:44:28;93257.31;;;3.32;69.81
12475;BME280;6302;42.624;23.334;2023-02-02T04:46:55;93254.41;;;3.37;69.91
12475;BME280;6302;42.624;23.334;2023-02-02T04:49:22;93260.91;;;3.43;67.98
12475;BME280;6302;42.624;23.334;2023-02-02T04:51:49;93270.31;;;3.47;67.58
12475;BME280;6302;42.624;23.334;2023-02-02T04:54:16;93272.19;;;3.47;66.99
12475;BME280;6302;42.624;23.334;2023-02-02T04:56:43;93266.13;;;3.43;66.68
12475;BME280;6302;42.624;23.334;2023-02-02T04:59:09;93273.22;;;3.42;67.16
12475;BME280;6302;42.624;23.334;2023-02-02T05:01:38;93281.56;;;3.48;65.78
12475;BME280;6302;42.624;23.334;2023-02-02T05:04:04;93262.06;;;3.45;65.69
12475;BME280;6302;42.624;23.334;2023-02-02T05:06:31;93269.56;;;3.47;66.98
12475;BME280;6302;42.624;23.334;2023-02-02T05:08:58;93274.53;;;3.52;67.09
12475;BME280;6302;42.624;23.334;2023-02-02T05:11:25;93271.25;;;3.58;67.90
12475;BME280;6302;42.624;23.334;2023-02-02T05:13:53;93271.97;;;3.55;67.58
12475;BME280;6302;42.624;23.334;2023-02-02T05:16:21;93263.84;;;3.60;67.86
12475;BME280;6302;42.624;23.334;2023-02-02T05:18:51;93262.31;;;3.59;69.54
12475;BME280;6302;42.624;23.334;2023-02-02T05:21:18;93261.91;;;3.57;70.07
12475;BME280;6302;42.624;23.334;2023-02-02T05:23:45;93269.69;;;3.54;68.75
12475;BME280;6302;42.624;23.334;2023-02-02T05:26:15;93264.13;;;3.55;69.29
12475;BME280;6302;42.624;23.334;2023-02-02T05:28:43;93259.31;;;3.61;68.26
12475;BME280;6302;42.624;23.334;2023-02-02T05:31:10;93254.66;;;3.51;67.50
12475;BME280;6302;42.624;23.334;2023-02-02T05:33:36;93256.81;;;3.45;68.21
12475;BME280;6302;42.624;23.334;2023-02-02T05:36:06;93250.94;;;3.52;68.30
12475;BME280;6302;42.624;23.334;2023-02-02T05:38:33;93264.03;;;3.52;67.71
12475;BME280;6302;42.624;23.334;2023-02-02T05:41:00;93253.50;;;3.48;68.53
12475;BME280;6302;42.624;23.334;2023-02-02T05:43:29;93277.81;;;3.49;69.11
12475;BME280;6302;42.624;23.334;2023-02-02T05:45:56;93272.78;;;3.59;69.74
12475;BME280;6302;42.624;23.334;2023-02-02T05:48:23;93265.13;;;3.51;71.33
12475;BME280;6302;42.624;23.334;2023-02-02T05:50:56;93266.44;;;3.60;68.64
12475;BME280;6302;42.624;23.334;2023-02-02T05:53:27;93281.00;;;3.58;69.22
12475;BME280;6302;42.624;23.334;2023-02-02T05:55:54;93270.09;;;3.56;70.12
12475;BME280;6302;42.624;23.334;2023-02-02T05:58:21;93278.84;;;3.63;69.67
12475;BME280;6302;42.624;23.334;2023-02-02T06:00:47;93267.72;;;3.70;66.83
12475;BME280;6302;42.624;23.334;2023-02-02T06:03:14;93272.97;;;3.70;67.08
12475;BME280;6302;42.624;23.334;2023-02-02T06:05:41;93276.81;;;3.76;66.17
12475;BME280;6302;42.624;23.334;2023-02-02T06:08:08;93277.28;;;3.81;65.82
12475;BME280;6302;42.624;23.334;2023-02-02T06:10:37;93276.91;;;3.83;67.11
12475;BME280;6302;42.624;23.334;2023-02-02T06:13:04;93270.06;;;3.75;66.39
12475;BME280;6302;42.624;23.334;2023-02-02T06:15:31;93275.94;;;3.91;64.38
12475;BME280;6302;42.624;23.334;2023-02-02T06:17:59;93292.25;;;4.04;63.65
12475;BME280;6302;42.624;23.334;2023-02-02T06:20:26;93294.19;;;4.07;63.93
12475;BME280;6302;42.624;23.334;2023-02-02T06:22:52;93299.13;;;4.12;64.79
12475;BME280;6302;42.624;23.334;2023-02-02T06:25:19;93309.63;;;4.12;65.03
12475;BME280;6302;42.624;23.334;2023-02-02T06:27:47;93308.16;;;4.14;66.65
12475;BME280;6302;42.624;23.334;2023-02-02T06:30:16;93320.81;;;4.09;68.00
12475;BME280;6302;42.624;23.334;2023-02-02T06:32:43;93328.38;;;4.14;68.16
12475;BME280;6302;42.624;23.334;2023-02-02T06:35:10;93321.00;;;4.19;67.68
12475;BME280;6302;42.624;23.334;2023-02-02T06:37:37;93325.41;;;4.15;67.20
12475;BME280;6302;42.624;23.334;2023-02-02T06:40:06;93310.91;;;4.21;67.38
12475;BME280;6302;42.624;23.334;2023-02-02T06:42:33;93331.59;;;4.26;68.00
12475;BME280;6302;42.624;23.334;2023-02-02T06:45:02;93329.25;;;4.21;67.84
12475;BME280;6302;42.624;23.334;2023-02-02T06:47:31;93336.00;;;4.22;68.26
12475;BME280;6302;42.624;23.334;2023-02-02T06:49:57;93328.22;;;4.26;69.14
12475;BME280;6302;42.624;23.334;2023-02-02T06:52:24;93328.22;;;4.26;68.64
12475;BME280;6302;42.624;23.334;2023-02-02T06:54:51;93321.28;;;4.37;69.23
12475;BME280;6302;42.624;23.334;2023-02-02T06:57:18;93309.19;;;4.32;69.41
12475;BME280;6302;42.624;23.334;2023-02-02T06:59:44;93318.59;;;4.33;70.46
12475;BME280;6302;42.624;23.334;2023-02-02T07:02:13;93321.13;;;4.30;71.02
12475;BME280;6302;42.624;23.334;2023-02-02T07:04:39;93336.84;;;4.26;71.87
12475;BME280;6302;42.624;23.334;2023-02-02T07:07:06;93343.34;;;4.36;72.07
12475;BME280;6302;42.624;23.334;2023-02-02T07:09:34;93336.84;;;4.26;70.92
12475;BME280;6302;42.624;23.334;2023-02-02T07:12:00;93335.59;;;4.43;70.62
12475;BME280;6302;42.624;23.334;2023-02-02T07:14:27;93342.69;;;4.42;71.62
12475;BME280;6302;42.624;23.334;2023-02-02T07:16:54;93349.97;;;4.52;71.39
12475;BME280;6302;42.624;23.334;2023-02-02T07:19:22;93339.50;;;4.52;69.59
12475;BME280;6302;42.624;23.334;2023-02-02T07:21:49;93340.03;;;4.62;69.55
12475;BME280;6302;42.624;23.334;2023-02-02T07:24:16;93340.03;;;4.62;67.45
12475;BME280;6302;42.624;23.334;2023-02-02T07:26:42;93344.91;;;4.63;68.12
12475;BME280;6302;42.624;23.334;2023-02-02T07:29:11;93322.13;;;4.44;66.48
12475;BME280;6302;42.624;23.334;2023-02-02T07:31:38;93332.75;;;4.51;66.24
12475;BME280;6302;42.624;23.334;2023-02-02T07:34:05;93352.28;;;4.54;67.95
12475;BME280;6302;42.624;23.334;2023-02-02T07:36:34;93352.97;;;4.51;69.07
12475;BME280;6302;42.624;23.334;2023-02-02T07:39:02;93350.81;;;4.56;69.67
12475;BME280;6302;42.624;23.334;2023-02-02T07:41:30;93341.59;;;4.66;70.20
12475;BME280;6302;42.624;23.334;2023-02-02T07:43:57;93345.00;;;4.70;69.59
12475;BME280;6302;42.624;23.334;2023-02-02T07:46:23;93344.69;;;4.75;70.32
12475;BME280;6302;42.624;23.334;2023-02-02T07:48:52;93347.53;;;4.89;69.68
12475;BME280;6302;42.624;23.334;2023-02-02T07:51:21;93343.75;;;4.87;69.57
12475;BME280;6302;42.624;23.334;2023-02-02T07:53:50;93332.63;;;4.97;68.83
12475;BME280;6302;42.624;23.334;2023-02-02T07:56:19;93321.09;;;5.05;68.86
12475;BME280;6302;42.624;23.334;2023-02-02T07:58:46;93325.25;;;5.06;68.83
12475;BME280;6302;42.624;23.334;2023-02-02T08:01:14;93316.41;;;5.21;68.25
12475;BME280;6302;42.624;23.334;2023-02-02T08:03:42;93308.22;;;5.26;67.93
12475;BME280;6302;42.624;23.334;2023-02-02T08:06:12;93299.72;;;5.36;67.38
12475;BME280;6302;42.624;23.334;2023-02-02T08:08:39;93301.56;;;5.32;70.96
12475;BME280;6302;42.624;23.334;2023-02-02T08:11:09;93307.03;;;5.20;72.63
12475;BME280;6302;42.624;23.334;2023-02-02T08:13:37;93309.75;;;5.27;73.20
12475;BME280;6302;42.624;23.334;2023-02-02T08:16:04;93301.41;;;5.18;73.91
12475;BME280;6302;42.624;23.334;2023-02-02T08:18:32;93297.31;;;5.24;75.41
12475;BME280;6302;42.624;23.334;2023-02-02T08:20:59;93297.09;;;5.36;76.01
12475;BME280;6302;42.624;23.334;2023-02-02T08:23:26;93303.09;;;5.37;75.44
12475;BME280;6302;42.624;23.334;2023-02-02T08:25:54;93300.47;;;5.37;76.21
12475;BME280;6302;42.624;23.334;2023-02-02T08:28:31;93301.59;;;5.36;75.24
12475;BME280;6302;42.624;23.334;2023-02-02T08:31:03;93303.88;;;5.37;74.76
12475;BME280;6302;42.624;23.334;2023-02-02T08:33:30;93291.75;;;5.29;75.76
12475;BME280;6302;42.624;23.334;2023-02-02T08:35:57;93292.44;;;5.22;79.06
12475;BME280;6302;42.624;23.334;2023-02-02T08:38:24;93297.47;;;5.05;81.28
12475;BME280;6302;42.624;23.334;2023-02-02T08:40:51;93302.63;;;4.98;82.38
12475;BME280;6302;42.624;23.334;2023-02-02T08:43:17;93305.66;;;5.00;83.68
12475;BME280;6302;42.624;23.334;2023-02-02T08:45:46;93299.63;;;4.96;83.26
12475;BME280;6302;42.624;23.334;2023-02-02T08:48:13;93307.06;;;4.94;84.89
12475;BME280;6302;42.624;23.334;2023-02-02T08:50:41;93297.38;;;4.98;84.98
12475;BME280;6302;42.624;23.334;2023-02-02T08:53:08;93280.56;;;5.02;84.59
12475;BME280;6302;42.624;23.334;2023-02-02T08:55:35;93279.84;;;5.05;85.07
12475;BME280;6302;42.624;23.334;2023-02-02T08:58:01;93279.47;;;5.07;86.79
12475;BME280;6302;42.624;23.334;2023-02-02T09:00:29;93275.75;;;5.08;86.89
12475;BME280;6302;42.624;23.334;2023-02-02T09:02:57;93274.22;;;5.07;84.93
12475;BME280;6302;42.624;23.334;2023-02-02T09:05:24;93282.81;;;5.04;84.08
12475;BME280;6302;42.624;23.334;2023-02-02T09:07:51;93269.25;;;4.98;84.90
12475;BME280;6302;42.624;23.334;2023-02-02T09:10:18;93278.72;;;5.06;86.11
12475;BME280;6302;42.624;23.334;2023-02-02T09:12:44;93277.63;;;5.07;86.59
12475;BME280;6302;42.624;23.334;2023-02-02T09:15:11;93266.88;;;5.19;85.90
12475;BME280;6302;42.624;23.334;2023-02-02T09:17:38;93276.06;;;5.03;87.18
12475;BME280;6302;42.624;23.334;2023-02-02T09:20:08;93288.88;;;5.08;89.51
12475;BME280;6302;42.624;23.334;2023-02-02T09:22:35;93267.56;;;5.13;89.34
12475;BME280;6302;42.624;23.334;2023-02-02T09:25:02;93272.75;;;5.09;90.18
12475;BME280;6302;42.624;23.334;2023-02-02T09:27:29;93266.16;;;5.22;90.37
12475;BME280;6302;42.624;23.334;2023-02-02T09:29:56;93268.03;;;5.22;90.60
12475;BME280;6302;42.624;23.334;2023-02-02T09:32:22;93254.66;;;5.34;89.57
12475;BME280;6302;42.624;23.334;2023-02-02T09:34:49;93272.72;;;5.76;86.14
12475;BME280;6302;42.624;23.334;2023-02-02T09:37:17;93265.47;;;5.99;82.26
12475;BME280;6302;42.624;23.334;2023-02-02T09:39:44;93251.81;;;5.86;82.63
12475;BME280;6302;42.624;23.334;2023-02-02T09:42:34;93250.81;;;6.02;82.02
12475;BME280;6302;42.624;23.334;2023-02-02T09:45:13;93254.94;;;5.99;80.99
12475;BME280;6302;42.624;23.334;2023-02-02T09:48:00;93252.69;;;6.01;81.75
12475;BME280;6302;42.624;23.334;2023-02-02T09:50:38;93251.94;;;6.01;81.73
12475;BME280;6302;42.624;23.334;2023-02-02T09:53:15;93258.88;;;6.23;81.29
12475;BME280;6302;42.624;23.334;2023-02-02T09:55:45;93242.50;;;6.47;81.69
12475;BME280;6302;42.624;23.334;2023-02-02T09:58:18;93263.31;;;6.66;78.92
12475;BME280;6302;42.624;23.334;2023-02-02T10:00:50;93253.19;;;6.68;78.23
12475;BME280;6302;42.624;23.334;2023-02-02T10:03:22;93244.94;;;6.77;77.38
12475;BME280;6302;42.624;23.334;2023-02-02T10:05:54;93242.41;;;6.94;78.88
12475;BME280;6302;42.624;23.334;2023-02-02T10:08:32;93236.81;;;7.13;70.71
12475;BME280;6302;42.624;23.334;2023-02-02T10:11:04;93249.69;;;7.26;68.62
12475;BME280;6302;42.624;23.334;2023-02-02T10:13:38;93203.69;;;7.05;64.47
12475;BME280;6302;42.624;23.334;2023-02-02T10:16:12;93230.09;;;7.19;64.59
12475;BME280;6302;42.624;23.334;2023-02-02T10:18:45;93225.22;;;7.29;63.67
12475;BME280;6302;42.624;23.334;2023-02-02T10:21:20;93223.34;;;7.26;62.78
12475;BME280;6302;42.624;23.334;2023-02-02T10:23:51;93204.56;;;7.45;62.17
12475;BME280;6302;42.624;23.334;2023-02-02T10:26:21;93216.28;;;7.65;61.47
12475;BME280;6302;42.624;23.334;2023-02-02T10:29:04;93211.38;;;7.60;59.73
12475;BME280;6302;42.624;23.334;2023-02-02T10:31:41;93212.53;;;7.80;60.38
12475;BME280;6302;42.624;23.334;2023-02-02T10:34:15;93191.06;;;7.99;59.38
12475;BME280;6302;42.624;23.334;2023-02-02T10:37:13;93177.84;;;7.78;60.28
12475;BME280;6302;42.624;23.334;2023-02-02T10:40:04;93178.22;;;8.22;59.30
12475;BME280;6302;42.624;23.334;2023-02-02T10:42:40;93176.38;;;8.26;58.80
12475;BME280;6302;42.624;23.334;2023-02-02T10:45:13;93163.16;;;8.19;58.51
12475;BME280;6302;42.624;23.334;2023-02-02T10:47:41;93169.19;;;8.06;59.36
12475;BME280;6302;42.624;23.334;2023-02-02T10:50:16;93157.09;;;8.26;59.82
12475;BME280;6302;42.624;23.334;2023-02-02T10:52:46;93149.97;;;8.26;59.94
12475;BME280;6302;42.624;23.334;2023-02-02T10:55:23;93137.13;;;8.21;60.20
12475;BME280;6302;42.624;23.334;2023-02-02T10:58:02;93136.00;;;8.19;60.58
12475;BME280;6302;42.624;23.334;2023-02-02T11:00:34;93126.19;;;8.30;61.22
12475;BME280;6302;42.624;23.334;2023-02-02T11:03:04;93119.75;;;8.41;60.04
12475;BME280;6302;42.624;23.334;2023-02-02T11:05:31;93131.06;;;8.49;57.46
12475;BME280;6302;42.624;23.334;2023-02-02T11:08:18;93129.19;;;8.35;58.58
12475;BME280;6302;42.624;23.334;2023-02-02T11:10:48;93140.50;;;8.46;58.74
12475;BME280;6302;42.624;23.334;2023-02-02T11:13:25;93150.31;;;8.46;59.14
12475;BME280;6302;42.624;23.334;2023-02-02T11:16:21;93115.56;;;8.51;58.38
12475;BME280;6302;42.624;23.334;2023-02-02T11:18:48;93135.91;;;8.58;58.05
12475;BME280;6302;42.624;23.334;2023-02-02T11:21:18;93115.84;;;8.74;59.70
12475;BME280;6302;42.624;23.334;2023-02-02T11:23:58;93116.97;;;8.84;57.53
12475;BME280;6302;42.624;23.334;2023-02-02T11:26:40;93105.97;;;8.92;57.80
12475;BME280;6302;42.624;23.334;2023-02-02T11:29:13;93115.63;;;8.33;56.58
12475;BME280;6302;42.624;23.334;2023-02-02T11:31:41;93102.41;;;8.44;58.14
12475;BME280;6302;42.624;23.334;2023-02-02T11:34:15;93096.69;;;8.52;58.54
12475;BME280;6302;42.624;23.334;2023-02-02T11:37:01;93088.41;;;8.54;57.23
12475;BME280;6302;42.624;23.334;2023-02-02T11:39:28;93077.44;;;8.59;58.80
12475;BME280;6302;42.624;23.334;2023-02-02T11:42:03;93085.06;;;8.36;58.07
12475;BME280;6302;42.624;23.334;2023-02-02T11:44:32;93085.44;;;8.38;57.59
12475;BME280;6302;42.624;23.334;2023-02-02T11:47:02;93090.72;;;8.38;57.00
12475;BME280;6302;42.624;23.334;2023-02-02T11:49:32;93086.16;;;8.45;58.48
12475;BME280;6302;42.624;23.334;2023-02-02T11:52:04;93083.81;;;8.62;56.58
12475;BME280;6302;42.624;23.334;2023-02-02T11:54:33;93075.47;;;8.77;58.02
12475;BME280;6302;42.624;23.334;2023-02-02T11:57:04;93081.50;;;8.78;57.37
12475;BME280;6302;42.624;23.334;2023-02-02T11:59:35;93076.09;;;8.99;56.42
12475;BME280;6302;42.624;23.334;2023-02-02T12:02:30;93068.16;;;8.99;56.34
12475;BME280;6302;42.624;23.334;2023-02-02T12:05:31;93046.31;;;8.95;55.06
12475;BME280;6302;42.624;23.334;2023-02-02T12:07:59;93065.25;;;8.83;54.13
12475;BME280;6302;42.624;23.334;2023-02-02T12:10:29;93061.97;;;8.58;52.63
12475;BME280;6302;42.624;23.334;2023-02-02T12:13:06;93064.22;;;8.63;53.60
12475;BME280;6302;42.624;23.334;2023-02-02T12:15:44;93074.84;;;8.45;56.62
12475;BME280;6302;42.624;23.334;2023-02-02T12:18:26;93049.97;;;8.42;55.31
12475;BME280;6302;42.624;23.334;2023-02-02T12:21:01;93069.63;;;8.34;55.34
12475;BME280;6302;42.624;23.334;2023-02-02T12:23:47;93070.75;;;8.30;55.65
12475;BME280;6302;42.624;23.334;2023-02-02T12:26:24;93063.59;;;8.16;55.33
12475;BME280;6302;42.624;23.334;2023-02-02T12:29:12;93062.84;;;8.19;56.32
12475;BME280;6302;42.624;23.334;2023-02-02T12:31:58;93070.34;;;8.35;58.38
12475;BME280;6302;42.624;23.334;2023-02-02T12:34:33;93069.63;;;8.20;58.62
12475;BME280;6302;42.624;23.334;2023-02-02T12:37:14;93074.91;;;8.13;56.16
12475;BME280;6302;42.624;23.334;2023-02-02T12:39:55;93085.50;;;8.06;52.75
12475;BME280;6302;42.624;23.334;2023-02-02T12:42:36;93091.53;;;7.85;51.73
12475;BME280;6302;42.624;23.334;2023-02-02T12:45:30;93072.34;;;7.74;53.73
12475;BME280;6302;42.624;23.334;2023-02-02T12:48:12;93074.59;;;7.65;52.00
12475;BME280;6302;42.624;23.334;2023-02-02T12:50:53;93078.75;;;7.63;52.39
12475;BME280;6302;42.624;23.334;2023-02-02T12:53:32;93075.00;;;7.50;52.61
12475;BME280;6302;42.624;23.334;2023-02-02T12:56:11;93068.59;;;7.44;53.24
12475;BME280;6302;42.624;23.334;2023-02-02T12:58:47;93065.94;;;7.30;54.13
12475;BME280;6302;42.624;23.334;2023-02-02T13:01:34;93081.78;;;7.37;55.01
12475;BME280;6302;42.624;23.334;2023-02-02T13:04:26;93080.66;;;7.31;55.91
12475;BME280;6302;42.624;23.334;2023-02-02T13:10:20;93073.47;;;7.42;55.26
12475;BME280;6302;42.624;23.334;2023-02-02T13:12:52;93063.69;;;7.35;54.81
12475;BME280;6302;42.624;23.334;2023-02-02T13:15:22;93065.19;;;7.47;56.09
12475;BME280;6302;42.624;23.334;2023-02-02T13:17:52;93082.91;;;7.53;55.09
12475;BME280;6302;42.624;23.334;2023-02-02T13:20:24;93076.50;;;7.54;56.67
12475;BME280;6302;42.624;23.334;2023-02-02T13:22:56;93081.38;;;7.56;55.23
12475;BME280;6302;42.624;23.334;2023-02-02T13:25:28;93078.00;;;7.52;55.66
12475;BME280;6302;42.624;23.334;2023-02-02T13:27:57;93062.19;;;7.62;56.23
12475;BME280;6302;42.624;23.334;2023-02-02T13:30:29;93066.34;;;7.53;55.18
12475;BME280;6302;42.624;23.334;2023-02-02T13:33:00;93064.06;;;7.51;56.92
12475;BME280;6302;42.624;23.334;2023-02-02T13:35:32;93070.09;;;7.41;56.35